sensor_id;sensor_type;location;lat;lon;timestamp;pressure;altitude;pressure_sealevel;temperature;humidity
33404;BME280;19751;40.274;18.268;2023-03-31T00:01:11;101662.41;;;11.79;100.00
33404;BME280;19751;40.274;18.268;2023-03-31T00:03:37;101658.50;;;11.82;100.00
33404;BME280;19751;40.274;18.268;2023-03-31T00:06:10;101660.25;;;11.83;100.00
33404;BME280;19751;40.274;18.268;2023-03-31T00:08:36;101660.06;;;11.84;100.00
33404;BME280;19751;40.274;18.268;2023-03-31T00:11:05;101669.19;;;11.83;100.00
33404;BME280;19751;40.274;18.268;2023-03-31T00:13:34;101660.56;;;11.80;100.00
33404;BME280;19751;40.274;18.268;2023-03-31T00:16:02;101657.03;;;11.79;100.00
33404;BME280;19751;40.274;18.268;2023-03-31T00:18:28;101649.75;;;11.80;100.00
33404;BME280;19751;40.274;18.268;2023-03-31T00:20:57;101646.88;;;11.89;100.00
33404;BME280;19751;40.274;18.268;2023-03-31T00:23:26;101642.94;;;12.00;100.00
33404;BME280;19751;40.274;18.268;2023-03-31T00:25:55;101638.34;;;12.09;100.00
33404;BME280;19751;40.274;18.268;2023-03-31T00:28:20;101634.91;;;12.15;100.00
33404;BME280;19751;40.274;18.268;2023-03-31T00:30:46;101631.34;;;12.23;100.00
33404;BME280;19751;40.274;18.268;2023-03-31T00:33:12;101634.38;;;12.28;100.00
33404;BME280;19751;40.274;18.268;2023-03-31T00:35:38;101639.88;;;12.34;100.00
33404;BME280;19751;40.274;18.268;2023-03-31T00:38:05;101634.13;;;12.37;100.00
33404;BME280;19751;40.274;18.268;2023-03-31T00:40:34;101627.88;;;12.37;100.00
33404;BME280;19751;40.274;18.268;2023-03-31T00:42:59;101621.44;;;12.38;100.00
33404;BME280;19751;40.274;18.268;2023-03-31T00:45:29;101604.41;;;12.37;100.00
33404;BME280;19751;40.274;18.268;2023-03-31T00:48:07;101599.00;;;12.37;100.00
33404;BME280;19751;40.274;18.268;2023-03-31T00:50:44;101591.91;;;12.36;100.00
33404;BME280;19751;40.274;18.268;2023-03-31T00:53:13;101586.31;;;12.38;100.00
33404;BME280;19751;40.274;18.268;2023-03-31T00:55:44;101596.09;;;12.39;100.00
33404;BME280;19751;40.274;18.268;2023-03-31T00:58:10;101588.00;;;12.39;100.00
33404;BME280;19751;40.274;18.268;2023-03-31T01:00:41;101585.50;;;12.37;100.00
33404;BME280;19751;40.274;18.268;2023-03-31T01:03:07;101593.59;;;12.37;100.00
33404;BME280;19751;40.274;18.268;2023-03-31T01:08:05;101580.44;;;12.34;100.00
33404;BME280;19751;40.274;18.268;2023-03-31T01:10:39;101582.97;;;12.36;100.00
33404;BME280;19751;40.274;18.268;2023-03-31T01:13:10;101581.13;;;12.36;100.00
33404;BME280;19751;40.274;18.268;2023-03-31T01:15:38;101574.31;;;12.40;100.00
33404;BME280;19751;40.274;18.268;2023-03-31T01:18:08;101570.59;;;12.41;100.00
33404;BME280;19751;40.274;18.268;2023-03-31T01:27:16;101562.38;;;12.35;100.00
33404;BME280;19751;40.274;18.268;2023-03-31T01:45:50;101542.06;;;12.39;100.00
33404;BME280;19751;40.274;18.268;2023-03-31T01:48:22;101533.13;;;12.38;100.00
33404;BME280;19751;40.274;18.268;2023-03-31T01:51:11;101531.47;;;12.37;100.00
33404;BME280;19751;40.274;18.268;2023-03-31T01:58:49;101514.50;;;12.43;100.00
33404;BME280;19751;40.274;18.268;2023-03-31T02:04:20;101517.03;;;12.45;100.00
33404;BME280;19751;40.274;18.268;2023-03-31T02:06:50;101515.16;;;12.46;100.00
33404;BME280;19751;40.274;18.268;2023-03-31T02:09:23;101507.06;;;12.46;100.00
33404;BME280;19751;40.274;18.268;2023-03-31T02:11:50;101506.22;;;12.45;100.00
33404;BME280;19751;40.274;18.268;2023-03-31T02:14:20;101512.47;;;12.46;100.00
33404;BME280;19751;40.274;18.268;2023-03-31T02:16:50;101507.06;;;12.46;100.00
33404;BME280;19751;40.274;18.268;2023-03-31T02:19:25;101506.22;;;12.45;100.00
33404;BME280;19751;40.274;18.268;2023-03-31T02:21:52;101502.31;;;12.48;100.00
33404;BME280;19751;40.274;18.268;2023-03-31T02:24:21;101501.94;;;12.51;100.00
33404;BME280;19751;40.274;18.268;2023-03-31T02:27:27;101497.22;;;12.53;100.00
33404;BME280;19751;40.274;18.268;2023-03-31T02:29:55;101497.56;;;12.50;100.00
33404;BME280;19751;40.274;18.268;2023-03-31T02:32:41;101495.91;;;12.49;100.00
33404;BME280;19751;40.274;18.268;2023-03-31T02:35:10;101494.19;;;12.48;100.00
33404;BME280;19751;40.274;18.268;2023-03-31T02:37:38;101494.19;;;12.48;100.00
33404;BME280;19751;40.274;18.268;2023-03-31T02:40:07;101490.84;;;12.46;100.00
33404;BME280;19751;40.274;18.268;2023-03-31T02:42:36;101486.28;;;12.46;100.00
33404;BME280;19751;40.274;18.268;2023-03-31T02:45:33;101482.56;;;12.47;100.00
33404;BME280;19751;40.274;18.268;2023-03-31T02:47:51;101485.09;;;12.49;100.00
33404;BME280;19751;40.274;18.268;2023-03-31T02:50:20;101472.59;;;12.48;100.00
33404;BME280;19751;40.274;18.268;2023-03-31T02:53:12;101477.34;;;12.46;100.00
33404;BME280;19751;40.274;18.268;2023-03-31T02:58:56;101477.50;;;12.44;100.00
33404;BME280;19751;40.274;18.268;2023-03-31T03:17:52;101463.47;;;12.49;100.00
33404;BME280;19751;40.274;18.268;2023-03-31T03:20:20;101465.16;;;12.50;100.00
33404;BME280;19751;40.274;18.268;2023-03-31T03:22:46;101466.63;;;12.52;100.00
33404;BME280;19751;40.274;18.268;2023-03-31T03:25:13;101467.28;;;12.54;100.00
33404;BME280;19751;40.274;18.268;2023-03-31T03:27:41;101465.06;;;12.58;100.00
33404;BME280;19751;40.274;18.268;2023-03-31T03:30:09;101464.03;;;12.59;100.00
33404;BME280;19751;40.274;18.268;2023-03-31T03:32:35;101464.03;;;12.59;100.00
33404;BME280;19751;40.274;18.268;2023-03-31T03:35:02;101470.28;;;12.59;100.00
33404;BME280;19751;40.274;18.268;2023-03-31T03:37:29;101467.75;;;12.58;100.00
33404;BME280;19751;40.274;18.268;2023-03-31T03:39:55;101466.94;;;12.57;100.00
33404;BME280;19751;40.274;18.268;2023-03-31T03:42:21;101463.75;;;12.54;100.00
33404;BME280;19751;40.274;18.268;2023-03-31T03:44:46;101462.44;;;12.50;100.00
33404;BME280;19751;40.274;18.268;2023-03-31T03:47:12;101457.88;;;12.50;100.00
33404;BME280;19751;40.274;18.268;2023-03-31T03:49:37;101457.41;;;12.47;100.00
33404;BME280;19751;40.274;18.268;2023-03-31T03:52:03;101456.75;;;12.44;100.00
33404;BME280;19751;40.274;18.268;2023-03-31T03:54:29;101448.66;;;12.44;100.00
33404;BME280;19751;40.274;18.268;2023-03-31T03:56:54;101454.06;;;12.44;100.00
33404;BME280;19751;40.274;18.268;2023-03-31T03:59:20;101457.59;;;12.45;100.00
33404;BME280;19751;40.274;18.268;2023-03-31T04:01:45;101454.69;;;12.47;100.00
33404;BME280;19751;40.274;18.268;2023-03-31T04:04:11;101450.97;;;12.48;100.00
33404;BME280;19751;40.274;18.268;2023-03-31T04:06:37;101448.47;;;12.46;100.00
33404;BME280;19751;40.274;18.268;2023-03-31T04:09:02;101448.81;;;12.43;100.00
33404;BME280;19751;40.274;18.268;2023-03-31T04:11:28;101444.44;;;12.42;100.00
33404;BME280;19751;40.274;18.268;2023-03-31T04:13:54;101449.00;;;12.41;100.00
33404;BME280;19751;40.274;18.268;2023-03-31T04:16:19;101450.69;;;12.42;100.00
33404;BME280;19751;40.274;18.268;2023-03-31T04:18:47;101454.63;;;12.40;100.00
33404;BME280;19751;40.274;18.268;2023-03-31T04:21:13;101461.56;;;12.34;100.00
33404;BME280;19751;40.274;18.268;2023-03-31T04:23:47;101457.28;;;12.25;100.00
33404;BME280;19751;40.274;18.268;2023-03-31T04:26:16;101455.97;;;12.21;100.00
33404;BME280;19751;40.274;18.268;2023-03-31T04:28:43;101451.75;;;12.18;100.00
33404;BME280;19751;40.274;18.268;2023-03-31T04:31:12;101449.97;;;12.11;100.00
33404;BME280;19751;40.274;18.268;2023-03-31T04:33:50;101449.38;;;12.01;100.00
33404;BME280;19751;40.274;18.268;2023-03-31T04:36:15;101451.50;;;11.90;100.00
33404;BME280;19751;40.274;18.268;2023-03-31T04:38:46;101453.72;;;11.87;100.00
33404;BME280;19751;40.274;18.268;2023-03-31T04:41:21;101457.81;;;11.83;100.00
33404;BME280;19751;40.274;18.268;2023-03-31T04:43:47;101453.03;;;11.85;100.00
33404;BME280;19751;40.274;18.268;2023-03-31T04:46:13;101458.28;;;11.86;100.00
33404;BME280;19751;40.274;18.268;2023-03-31T04:48:39;101456.22;;;11.88;100.00
33404;BME280;19751;40.274;18.268;2023-03-31T04:51:05;101438.84;;;11.91;100.00
33404;BME280;19751;40.274;18.268;2023-03-31T04:53:31;101442.47;;;11.98;100.00
33404;BME280;19751;40.274;18.268;2023-03-31T04:55:57;101434.84;;;12.02;100.00
33404;BME280;19751;40.274;18.268;2023-03-31T04:58:23;101422.66;;;12.06;100.00
33404;BME280;19751;40.274;18.268;2023-03-31T05:00:48;101420.44;;;12.09;100.00
33404;BME280;19751;40.274;18.268;2023-03-31T05:03:14;101412.16;;;12.11;100.00
33404;BME280;19751;40.274;18.268;2023-03-31T05:05:40;101406.13;;;12.09;100.00
33404;BME280;19751;40.274;18.268;2023-03-31T05:08:05;101400.22;;;12.05;100.00
33404;BME280;19751;40.274;18.268;2023-03-31T05:10:31;101397.88;;;12.02;100.00
33404;BME280;19751;40.274;18.268;2023-03-31T05:12:56;101392.97;;;12.06;100.00
33404;BME280;19751;40.274;18.268;2023-03-31T05:15:22;101388.53;;;12.13;100.00
33404;BME280;19751;40.274;18.268;2023-03-31T05:17:49;101383.03;;;12.21;100.00
33404;BME280;19751;40.274;18.268;2023-03-31T05:20:16;101377.06;;;12.26;100.00
33404;BME280;19751;40.274;18.268;2023-03-31T05:22:42;101370.94;;;12.32;100.00
33404;BME280;19751;40.274;18.268;2023-03-31T05:25:08;101363.97;;;12.37;100.00
33404;BME280;19751;40.274;18.268;2023-03-31T05:27:36;101368.81;;;12.42;100.00
33404;BME280;19751;40.274;18.268;2023-03-31T05:30:03;101371.97;;;12.46;100.00
33404;BME280;19751;40.274;18.268;2023-03-31T05:32:29;101368.50;;;12.52;100.00
33404;BME280;19751;40.274;18.268;2023-03-31T05:34:54;101370.47;;;12.58;100.00
33404;BME280;19751;40.274;18.268;2023-03-31T05:37:23;101376.81;;;12.65;100.00
33404;BME280;19751;40.274;18.268;2023-03-31T05:39:49;101377.94;;;12.71;100.00
33404;BME280;19751;40.274;18.268;2023-03-31T05:42:15;101379.03;;;12.76;100.00
33404;BME280;19751;40.274;18.268;2023-03-31T05:44:41;101376.59;;;12.81;100.00
33404;BME280;19751;40.274;18.268;2023-03-31T05:47:06;101381.25;;;12.87;100.00
33404;BME280;19751;40.274;18.268;2023-03-31T05:49:32;101380.47;;;12.93;100.00
33404;BME280;19751;40.274;18.268;2023-03-31T05:51:58;101380.56;;;13.00;100.00
33404;BME280;19751;40.274;18.268;2023-03-31T05:54:23;101372.72;;;13.05;100.00
33404;BME280;19751;40.274;18.268;2023-03-31T05:56:49;101372.44;;;13.15;100.00
33404;BME280;19751;40.274;18.268;2023-03-31T05:59:14;101352.56;;;13.23;100.00
33404;BME280;19751;40.274;18.268;2023-03-31T06:01:40;101349.56;;;13.32;100.00
33404;BME280;19751;40.274;18.268;2023-03-31T06:04:06;101346.72;;;13.40;100.00
33404;BME280;19751;40.274;18.268;2023-03-31T06:06:31;101347.44;;;13.49;100.00
33404;BME280;19751;40.274;18.268;2023-03-31T06:08:59;101336.25;;;13.59;100.00
33404;BME280;19751;40.274;18.268;2023-03-31T06:11:25;101344.25;;;13.67;100.00
33404;BME280;19751;40.274;18.268;2023-03-31T06:13:51;101336.38;;;13.72;100.00
33404;BME280;19751;40.274;18.268;2023-03-31T06:16:17;101344.34;;;13.80;100.00
33404;BME280;19751;40.274;18.268;2023-03-31T06:18:43;101336.09;;;13.88;100.00
33404;BME280;19751;40.274;18.268;2023-03-31T06:21:11;101334.88;;;13.91;100.00
33404;BME280;19751;40.274;18.268;2023-03-31T06:23:37;101335.56;;;14.00;100.00
33404;BME280;19751;40.274;18.268;2023-03-31T06:26:07;101336.00;;;14.03;100.00
33404;BME280;19751;40.274;18.268;2023-03-31T06:28:34;101326.88;;;14.11;100.00
33404;BME280;19751;40.274;18.268;2023-03-31T06:31:05;101335.03;;;14.17;100.00
33404;BME280;19751;40.274;18.268;2023-03-31T06:33:32;101328.63;;;14.25;100.00
33404;BME280;19751;40.274;18.268;2023-03-31T06:35:57;101332.44;;;14.31;100.00
33404;BME280;19751;40.274;18.268;2023-03-31T06:38:26;101326.81;;;14.39;100.00
33404;BME280;19751;40.274;18.268;2023-03-31T06:40:52;101332.56;;;14.51;100.00
33404;BME280;19751;40.274;18.268;2023-03-31T06:43:18;101336.53;;;14.55;100.00
33404;BME280;19751;40.274;18.268;2023-03-31T06:45:45;101343.88;;;14.61;100.00
33404;BME280;19751;40.274;18.268;2023-03-31T06:48:10;101329.06;;;14.63;100.00
33404;BME280;19751;40.274;18.268;2023-03-31T06:50:37;101338.91;;;14.71;100.00
33404;BME280;19751;40.274;18.268;2023-03-31T06:53:03;101340.19;;;14.75;100.00
33404;BME280;19751;40.274;18.268;2023-03-31T06:55:29;101339.13;;;14.76;100.00
33404;BME280;19751;40.274;18.268;2023-03-31T06:57:54;101342.28;;;14.80;100.00
33404;BME280;19751;40.274;18.268;2023-03-31T07:00:20;101334.56;;;14.83;100.00
33404;BME280;19751;40.274;18.268;2023-03-31T07:02:46;101333.53;;;14.84;100.00
33404;BME280;19751;40.274;18.268;2023-03-31T07:05:12;101335.84;;;14.87;100.00
33404;BME280;19751;40.274;18.268;2023-03-31T07:07:37;101331.69;;;14.91;100.00
33404;BME280;19751;40.274;18.268;2023-03-31T07:10:03;101343.81;;;14.96;100.00
33404;BME280;19751;40.274;18.268;2023-03-31T07:12:32;101353.22;;;15.00;100.00
33404;BME280;19751;40.274;18.268;2023-03-31T07:14:58;101352.16;;;15.01;100.00
33404;BME280;19751;40.274;18.268;2023-03-31T07:17:23;101358.84;;;15.05;100.00
33404;BME280;19751;40.274;18.268;2023-03-31T07:19:49;101349.06;;;15.10;100.00
33404;BME280;19751;40.274;18.268;2023-03-31T07:22:18;101358.91;;;15.18;100.00
33404;BME280;19751;40.274;18.268;2023-03-31T07:24:43;101355.16;;;15.19;100.00
33404;BME280;19751;40.274;18.268;2023-03-31T07:27:09;101361.84;;;15.23;100.00
33404;BME280;19751;40.274;18.268;2023-03-31T07:29:34;101344.94;;;15.28;100.00
33404;BME280;19751;40.274;18.268;2023-03-31T07:32:00;101331.16;;;15.29;100.00
33404;BME280;19751;40.274;18.268;2023-03-31T07:34:25;101333.06;;;15.35;100.00
33404;BME280;19751;40.274;18.268;2023-03-31T07:36:54;101334.75;;;15.43;100.00
33404;BME280;19751;40.274;18.268;2023-03-31T07:39:20;101342.25;;;15.48;100.00
33404;BME280;19751;40.274;18.268;2023-03-31T07:41:45;101361.28;;;15.48;100.00
33404;BME280;19751;40.274;18.268;2023-03-31T07:44:11;101367.31;;;15.50;100.00
33404;BME280;19751;40.274;18.268;2023-03-31T07:46:36;101374.00;;;15.54;100.00
33404;BME280;19751;40.274;18.268;2023-03-31T07:49:03;101377.16;;;15.57;100.00
33404;BME280;19751;40.274;18.268;2023-03-31T07:51:29;101376.53;;;15.62;100.00
33404;BME280;19751;40.274;18.268;2023-03-31T07:53:54;101378.47;;;15.68;100.00
33404;BME280;19751;40.274;18.268;2023-03-31T07:56:23;101372.38;;;15.79;100.00
33404;BME280;19751;40.274;18.268;2023-03-31T07:58:49;101377.00;;;15.85;100.00
33404;BME280;19751;40.274;18.268;2023-03-31T08:01:17;101379.69;;;15.92;100.00
33404;BME280;19751;40.274;18.268;2023-03-31T08:03:45;101381.81;;;15.97;100.00
33404;BME280;19751;40.274;18.268;2023-03-31T08:06:11;101371.75;;;16.04;100.00
33404;BME280;19751;40.274;18.268;2023-03-31T08:08:37;101372.41;;;16.06;100.00
33404;BME280;19751;40.274;18.268;2023-03-31T08:11:08;101369.03;;;16.10;100.00
33404;BME280;19751;40.274;18.268;2023-03-31T08:13:34;101379.06;;;16.16;100.00
33404;BME280;19751;40.274;18.268;2023-03-31T08:16:00;101380.13;;;16.22;100.00
33404;BME280;19751;40.274;18.268;2023-03-31T08:18:26;101381.13;;;16.28;100.00
33404;BME280;19751;40.274;18.268;2023-03-31T08:20:51;101370.28;;;16.28;100.00
33404;BME280;19751;40.274;18.268;2023-03-31T08:23:17;101367.78;;;16.26;100.00
33404;BME280;19751;40.274;18.268;2023-03-31T08:25:42;101378.00;;;16.24;100.00
33404;BME280;19751;40.274;18.268;2023-03-31T08:28:08;101374.88;;;16.27;100.00
33404;BME280;19751;40.274;18.268;2023-03-31T08:30:39;101381.34;;;16.33;100.00
33404;BME280;19751;40.274;18.268;2023-03-31T08:33:04;101384.88;;;16.33;100.00
33404;BME280;19751;40.274;18.268;2023-03-31T08:35:32;101384.06;;;16.33;100.00
33404;BME280;19751;40.274;18.268;2023-03-31T08:37:57;101375.06;;;16.32;100.00
33404;BME280;19751;40.274;18.268;2023-03-31T08:40:25;101370.88;;;16.36;100.00
33404;BME280;19751;40.274;18.268;2023-03-31T08:43:03;101372.13;;;16.40;100.00
33404;BME280;19751;40.274;18.268;2023-03-31T08:45:38;101369.81;;;16.37;100.00
33404;BME280;19751;40.274;18.268;2023-03-31T08:48:43;101357.69;;;16.40;100.00
33404;BME280;19751;40.274;18.268;2023-03-31T08:51:15;101346.81;;;16.47;100.00
33404;BME280;19751;40.274;18.268;2023-03-31T08:54:12;101332.75;;;16.56;100.00
33404;BME280;19751;40.274;18.268;2023-03-31T08:56:41;101343.41;;;16.64;100.00
33404;BME280;19751;40.274;18.268;2023-03-31T08:59:33;101325.38;;;16.70;100.00
33404;BME280;19751;40.274;18.268;2023-03-31T09:10:37;101303.78;;;16.88;100.00
33404;BME280;19751;40.274;18.268;2023-03-31T09:18:33;101315.66;;;17.01;100.00
33404;BME280;19751;40.274;18.268;2023-03-31T09:23:57;101293.81;;;17.07;100.00
33404;BME280;19751;40.274;18.268;2023-03-31T09:26:53;101290.25;;;17.07;100.00
33404;BME280;19751;40.274;18.268;2023-03-31T09:29:22;101291.09;;;17.07;100.00
33404;BME280;19751;40.274;18.268;2023-03-31T09:31:55;101287.94;;;17.10;100.00
33404;BME280;19751;40.274;18.268;2023-03-31T09:34:26;101285.47;;;17.09;100.00
33404;BME280;19751;40.274;18.268;2023-03-31T09:36:53;101294.84;;;17.13;100.00
33404;BME280;19751;40.274;18.268;2023-03-31T09:39:18;101292.50;;;17.17;100.00
33404;BME280;19751;40.274;18.268;2023-03-31T09:41:45;101293.94;;;17.26;100.00
33404;BME280;19751;40.274;18.268;2023-03-31T09:44:26;101301.63;;;17.29;100.00
33404;BME280;19751;40.274;18.268;2023-03-31T09:46:53;101289.47;;;17.31;100.00
33404;BME280;19751;40.274;18.268;2023-03-31T09:49:26;101291.97;;;17.33;100.00
33404;BME280;19751;40.274;18.268;2023-03-31T09:52:24;101289.88;;;17.35;100.00
33404;BME280;19751;40.274;18.268;2023-03-31T09:54:53;101282.31;;;17.37;100.00
33404;BME280;19751;40.274;18.268;2023-03-31T09:57:27;101278.31;;;17.39;100.00
33404;BME280;19751;40.274;18.268;2023-03-31T10:00:01;101281.19;;;17.45;100.00
33404;BME280;19751;40.274;18.268;2023-03-31T10:04:58;101273.66;;;17.47;100.00
33404;BME280;19751;40.274;18.268;2023-03-31T10:07:24;101264.66;;;17.46;100.00
33404;BME280;19751;40.274;18.268;2023-03-31T10:09:51;101260.88;;;17.47;100.00
33404;BME280;19751;40.274;18.268;2023-03-31T10:12:20;101256.03;;;17.49;100.00
33404;BME280;19751;40.274;18.268;2023-03-31T10:14:51;101258.97;;;17.48;100.00
33404;BME280;19751;40.274;18.268;2023-03-31T10:17:20;101253.50;;;17.54;100.00
33404;BME280;19751;40.274;18.268;2023-03-31T10:19:53;101245.25;;;17.61;100.00
33404;BME280;19751;40.274;18.268;2023-03-31T10:24:50;101252.53;;;17.67;100.00
33404;BME280;19751;40.274;18.268;2023-03-31T10:27:27;101238.22;;;17.72;100.00
33404;BME280;19751;40.274;18.268;2023-03-31T10:29:55;101238.81;;;17.74;100.00
33404;BME280;19751;40.274;18.268;2023-03-31T10:32:28;101233.63;;;17.72;100.00
33404;BME280;19751;40.274;18.268;2023-03-31T10:34:55;101243.88;;;17.77;100.00
33404;BME280;19751;40.274;18.268;2023-03-31T10:37:24;101240.22;;;17.83;100.00
33404;BME280;19751;40.274;18.268;2023-03-31T10:40:08;101228.06;;;17.85;100.00
33404;BME280;19751;40.274;18.268;2023-03-31T10:42:38;101218.22;;;17.84;100.00
33404;BME280;19751;40.274;18.268;2023-03-31T10:45:30;101219.50;;;17.82;100.00
33404;BME280;19751;40.274;18.268;2023-03-31T10:48:00;101200.22;;;17.83;100.00
33404;BME280;19751;40.274;18.268;2023-03-31T10:50:32;101201.44;;;17.87;100.00
33404;BME280;19751;40.274;18.268;2023-03-31T10:53:10;101197.19;;;17.92;100.00
33404;BME280;19751;40.274;18.268;2023-03-31T10:55:42;101199.69;;;17.93;100.00
33404;BME280;19751;40.274;18.268;2023-03-31T11:06:19;101178.78;;;18.05;100.00
33404;BME280;19751;40.274;18.268;2023-03-31T11:09:12;101179.16;;;18.09;100.00
33404;BME280;19751;40.274;18.268;2023-03-31T11:12:15;101178.03;;;18.17;100.00
33404;BME280;19751;40.274;18.268;2023-03-31T11:18:17;101163.91;;;18.20;100.00
33404;BME280;19751;40.274;18.268;2023-03-31T11:29:21;101147.72;;;18.25;100.00
33404;BME280;19751;40.274;18.268;2023-03-31T11:42:07;101136.25;;;18.34;97.56
33404;BME280;19751;40.274;18.268;2023-03-31T11:44:45;101131.53;;;18.42;90.10
33404;BME280;19751;40.274;18.268;2023-03-31T11:47:24;101128.94;;;18.47;90.74
33404;BME280;19751;40.274;18.268;2023-03-31T11:50:01;101120.88;;;18.52;88.67
33404;BME280;19751;40.274;18.268;2023-03-31T11:52:33;101114.34;;;18.53;88.21
33404;BME280;19751;40.274;18.268;2023-03-31T11:55:05;101100.97;;;18.51;88.33
33404;BME280;19751;40.274;18.268;2023-03-31T12:00:21;101081.88;;;18.51;83.74
33404;BME280;19751;40.274;18.268;2023-03-31T12:03:04;101096.47;;;18.57;82.28
33404;BME280;19751;40.274;18.268;2023-03-31T12:05:37;101085.66;;;18.62;80.38
33404;BME280;19751;40.274;18.268;2023-03-31T12:10:57;101084.25;;;18.59;86.04
33404;BME280;19751;40.274;18.268;2023-03-31T12:13:42;101076.19;;;18.64;84.48
33404;BME280;19751;40.274;18.268;2023-03-31T12:16:16;101071.09;;;18.68;82.41
33404;BME280;19751;40.274;18.268;2023-03-31T12:21:28;101069.19;;;18.69;76.90
33404;BME280;19751;40.274;18.268;2023-03-31T12:23:55;101072.91;;;18.74;79.17
33404;BME280;19751;40.274;18.268;2023-03-31T12:29:19;101061.19;;;18.85;84.03
33404;BME280;19751;40.274;18.268;2023-03-31T12:31:46;101061.78;;;18.87;86.83
33404;BME280;19751;40.274;18.268;2023-03-31T12:34:15;101049.34;;;18.92;90.04
33404;BME280;19751;40.274;18.268;2023-03-31T12:42:41;101031.75;;;19.11;74.38
33404;BME280;19751;40.274;18.268;2023-03-31T12:45:47;101021.78;;;19.05;77.78
33404;BME280;19751;40.274;18.268;2023-03-31T12:51:08;101026.06;;;19.01;75.45
33404;BME280;19751;40.274;18.268;2023-03-31T13:04:35;100996.38;;;19.16;85.72
33404;BME280;19751;40.274;18.268;2023-03-31T13:07:52;100985.09;;;19.12;85.61
33404;BME280;19751;40.274;18.268;2023-03-31T13:10:25;100979.88;;;19.11;87.18
33404;BME280;19751;40.274;18.268;2023-03-31T13:13:10;100962.75;;;19.16;88.29
33404;BME280;19751;40.274;18.268;2023-03-31T13:15:37;100955.06;;;19.12;91.90
33404;BME280;19751;40.274;18.268;2023-03-31T13:18:05;100957.31;;;19.16;91.90
33404;BME280;19751;40.274;18.268;2023-03-31T13:20:36;100961.94;;;19.15;94.13
33404;BME280;19751;40.274;18.268;2023-03-31T13:25:38;100961.19;;;19.31;95.51
33404;BME280;19751;40.274;18.268;2023-03-31T13:28:09;100957.38;;;19.32;93.96
33404;BME280;19751;40.274;18.268;2023-03-31T13:33:48;100963.34;;;19.29;94.24
33404;BME280;19751;40.274;18.268;2023-03-31T13:39:15;100954.69;;;19.21;95.20
33404;BME280;19751;40.274;18.268;2023-03-31T13:45:14;100935.53;;;19.32;96.47
33404;BME280;19751;40.274;18.268;2023-03-31T13:47:57;100926.13;;;19.40;96.98
33404;BME280;19751;40.274;18.268;2023-03-31T14:01:44;100911.72;;;19.45;93.50
33404;BME280;19751;40.274;18.268;2023-03-31T14:06:56;100904.38;;;19.17;91.48
33404;BME280;19751;40.274;18.268;2023-03-31T14:09:32;100888.25;;;19.03;91.09
33404;BME280;19751;40.274;18.268;2023-03-31T14:11:59;100894.81;;;18.91;95.67
33404;BME280;19751;40.274;18.268;2023-03-31T14:14:25;100885.81;;;18.78;99.29
33404;BME280;19751;40.274;18.268;2023-03-31T14:16:54;100887.69;;;18.66;99.54
33404;BME280;19751;40.274;18.268;2023-03-31T14:29:54;100875.63;;;18.50;100.00
33404;BME280;19751;40.274;18.268;2023-03-31T14:32:41;100859.03;;;18.40;100.00
33404;BME280;19751;40.274;18.268;2023-03-31T14:35:32;100854.28;;;18.35;100.00
33404;BME280;19751;40.274;18.268;2023-03-31T14:38:05;100852.28;;;18.31;100.00
33404;BME280;19751;40.274;18.268;2023-03-31T14:40:35;100862.72;;;18.22;100.00
33404;BME280;19751;40.274;18.268;2023-03-31T14:43:19;100864.16;;;18.13;100.00
33404;BME280;19751;40.274;18.268;2023-03-31T14:45:45;100860.69;;;18.06;100.00
33404;BME280;19751;40.274;18.268;2023-03-31T14:48:13;100857.75;;;17.96;100.00
33404;BME280;19751;40.274;18.268;2023-03-31T14:50:43;100842.78;;;17.86;100.00
33404;BME280;19751;40.274;18.268;2023-03-31T14:53:16;100849.41;;;17.79;100.00
33404;BME280;19751;40.274;18.268;2023-03-31T14:55:44;100851.13;;;17.73;100.00
33404;BME280;19751;40.274;18.268;2023-03-31T14:58:15;100851.03;;;17.68;100.00
33404;BME280;19751;40.274;18.268;2023-03-31T15:00:46;100849.22;;;17.62;100.00
33404;BME280;19751;40.274;18.268;2023-03-31T15:03:13;100844.72;;;17.56;100.00
33404;BME280;19751;40.274;18.268;2023-03-31T15:05:40;100844.59;;;17.51;100.00
33404;BME280;19751;40.274;18.268;2023-03-31T15:08:18;100850.94;;;17.45;100.00
33404;BME280;19751;40.274;18.268;2023-03-31T15:10:49;100847.47;;;17.37;100.00
33404;BME280;19751;40.274;18.268;2023-03-31T15:13:19;100853.63;;;17.33;100.00
33404;BME280;19751;40.274;18.268;2023-03-31T15:15:45;100840.72;;;17.28;100.00
33404;BME280;19751;40.274;18.268;2023-03-31T15:18:12;100844.00;;;17.19;100.00
33404;BME280;19751;40.274;18.268;2023-03-31T15:20:40;100846.34;;;17.15;100.00
33404;BME280;19751;40.274;18.268;2023-03-31T15:23:24;100848.81;;;17.17;100.00
33404;BME280;19751;40.274;18.268;2023-03-31T15:26:01;100847.03;;;17.10;100.00
33404;BME280;19751;40.274;18.268;2023-03-31T15:28:32;100855.91;;;17.06;100.00
33404;BME280;19751;40.274;18.268;2023-03-31T15:31:00;100865.13;;;17.05;100.00
33404;BME280;19751;40.274;18.268;2023-03-31T15:33:34;100858.00;;;17.04;100.00
33404;BME280;19751;40.274;18.268;2023-03-31T15:36:07;100844.63;;;17.02;100.00
33404;BME280;19751;40.274;18.268;2023-03-31T15:38:32;100847.59;;;17.01;100.00